Duncan, AZ

11:35 PM MST on Septiembre 29, 2016 (GMT -0700)
APRSWXNET | | Change Station

Elev 3815 ft 32.75 °N, 109.08 °W | Updated 28 minutes ago

Mostly Cloudy
Mostly Cloudy
64 °F
Feels Like 64 °F
N
5
Hangin Variable Hangin from SW
Gusts 10.0 mph

Ngayon
High -- | Low -- °F
--% Chance of Precip.
Yesterday
High -- | Low -- °F
Precip. -- sa
Pwersa 30.10 sa
Paningin 10.0 milya
Mga Ulap Mostly Cloudy 11000 ft
Hamog 61 °F
Humidito 89%
Rainfall sa
Snow Depth Not available.
6:09 AM 6:02 PM
Waning Crescent, 1% visible
METAR KSAD 300551Z AUTO 11011KT 10SM BKN110 20/16 A3023 RMK AO2 RAB24E46 SLP191 P0000 60015 T02000161 10289 20194 53018
Pwersa 30.10 sa
Paningin 10.0 milya
Mga Ulap Mostly Cloudy 11000 ft
Hamog 61 °F
Humidito 89%
Rainfall sa
Snow Depth Not available.
6:09 AM 6:02 PM
Waning Crescent, 1% visible
METAR KSAD 300551Z AUTO 11011KT 10SM BKN110 20/16 A3023 RMK AO2 RAB24E46 SLP191 P0000 60015 T02000161 10289 20194 53018

10-Day Weather Forecast

Almanac

Astronomiya

Sep. 29, 2016 Rise Set
Actual Time
Civil Twilight
Nautical Twilight
Astronomical Twilight
Buwan
Length Of Visible Light
Haba ng Araw
Tomorrow will be .
, % of the Moon is Illuminated

Today's Extremes

State Highs State Lows

Community

WunderPhotos

Upload Photos

1,942,668 photos uploaded!

WunderBlog® & News

Nearby

Air Quality

  Air Quality AQ Index Pollutant
Not available.

Snow Depth

Station Depth Elevation

Earthquake Activity

Siyudad Distance Mag. Time & Date
Minimum magnitude displayed is 2.5.

Coastal Water Temperatures

lugar Temparatura

Stations

Nearby Weather Stations

Station Location Temp Windchill Hamog Humidito Hangin Precip. Elev Bago Type
                   

Watches & Warnings

There are currently no watches in effect.